createdAt,value
2023-04-09T00:00:01.917Z,14.55
2023-04-09T00:02:29.758Z,5.03
2023-04-09T00:04:59.949Z,4.68
2023-04-09T00:07:28.164Z,5.57
2023-04-09T00:09:55.823Z,5.47
2023-04-09T00:12:26.755Z,6.97
2023-04-09T00:14:54.421Z,9.20
2023-04-09T00:17:24.707Z,9.23
2023-04-09T00:19:52.654Z,9.25
2023-04-09T00:22:20.402Z,9.65
2023-04-09T00:24:48.100Z,9.20
2023-04-09T00:27:15.939Z,7.65
2023-04-09T00:29:43.684Z,9.52
2023-04-09T00:32:11.682Z,16.02
2023-04-09T00:34:39.431Z,30.95
2023-04-09T00:37:07.663Z,14.07
2023-04-09T00:39:35.507Z,11.05
2023-04-09T00:42:06.199Z,13.38
2023-04-09T00:44:33.957Z,14.98
2023-04-09T00:47:01.835Z,10.60
2023-04-09T00:49:29.769Z,49.85
2023-04-09T00:51:57.574Z,52.00
2023-04-09T00:54:25.180Z,16.35
2023-04-09T00:56:53.384Z,30.25
2023-04-09T00:59:21.084Z,8.70
2023-04-09T01:01:48.896Z,8.38
2023-04-09T01:04:16.881Z,29.23
2023-04-09T01:06:57.112Z,50.78
2023-04-09T01:09:38.869Z,50.65
2023-04-09T01:12:25.174Z,36.95
2023-04-09T01:14:57.864Z,38.88
2023-04-09T01:17:35.781Z,6.75
2023-04-09T01:20:11.254Z,15.48
2023-04-09T01:22:57.060Z,41.63
2023-04-09T01:25:43.354Z,6.88
2023-04-09T01:28:20.984Z,36.20
2023-04-09T01:30:54.248Z,29.05
2023-04-09T01:33:23.184Z,7.32
2023-04-09T01:35:52.095Z,7.38
2023-04-09T01:38:22.560Z,6.97
2023-04-09T01:40:51.183Z,8.77
2023-04-09T01:43:21.481Z,7.15
2023-04-09T01:45:49.647Z,20.73
2023-04-09T01:48:17.508Z,8.73
2023-04-09T01:50:47.771Z,11.00
2023-04-09T01:53:18.020Z,8.20
2023-04-09T01:55:45.768Z,15.35
2023-04-09T01:58:13.489Z,26.60
2023-04-09T02:00:43.809Z,9.75
2023-04-09T02:03:17.631Z,22.75
2023-04-09T02:05:51.386Z,10.90
2023-04-09T02:08:22.045Z,37.38
2023-04-09T02:10:55.591Z,36.72
2023-04-09T02:13:25.987Z,31.83
2023-04-09T02:15:53.961Z,38.80
2023-04-09T02:18:25.393Z,28.15
2023-04-09T02:20:55.672Z,30.90
2023-04-09T02:23:29.592Z,28.77
2023-04-09T02:25:57.514Z,42.75
2023-04-09T02:28:25.245Z,29.35
2023-04-09T02:30:53.285Z,35.42
2023-04-09T02:33:21.088Z,46.90
2023-04-09T02:35:49.469Z,67.15
2023-04-09T02:38:17.687Z,75.38
2023-04-09T02:40:45.659Z,60.05
2023-04-09T02:43:13.447Z,63.28
2023-04-09T02:45:41.263Z,49.58
2023-04-09T02:48:09.034Z,66.78
2023-04-09T02:50:36.771Z,72.25
2023-04-09T02:53:04.548Z,75.13
2023-04-09T02:55:34.641Z,79.35
2023-04-09T02:58:02.243Z,70.43
2023-04-09T03:00:30.013Z,71.60
2023-04-09T03:02:58.413Z,69.57
2023-04-09T03:05:26.352Z,55.25
2023-04-09T03:07:54.673Z,69.13
2023-04-09T03:10:22.258Z,65.18
2023-04-09T03:12:52.827Z,69.32
2023-04-09T03:15:20.668Z,52.33
2023-04-09T03:17:48.533Z,52.70
2023-04-09T03:20:16.443Z,52.70
2023-04-09T03:22:44.221Z,46.22
2023-04-09T03:25:14.237Z,35.55
2023-04-09T03:27:42.070Z,65.57
2023-04-09T03:30:10.235Z,65.10
2023-04-09T03:32:37.817Z,53.60
2023-04-09T03:35:06.114Z,50.08
2023-04-09T03:37:34.483Z,55.28
2023-04-09T03:40:04.624Z,57.00
2023-04-09T03:42:32.367Z,69.65
2023-04-09T03:45:00.160Z,66.35
2023-04-09T03:47:28.042Z,37.17
2023-04-09T03:49:55.876Z,56.67
2023-04-09T03:52:23.941Z,54.05
2023-04-09T03:54:51.803Z,70.32
2023-04-09T03:57:19.564Z,55.35
2023-04-09T03:59:49.913Z,47.08
2023-04-09T04:02:17.777Z,53.08
2023-04-09T04:04:45.624Z,55.30
2023-04-09T04:07:13.422Z,56.92
2023-04-09T04:09:44.297Z,59.13
2023-04-09T04:12:11.989Z,53.75
2023-04-09T04:14:39.806Z,51.65
2023-04-09T04:17:07.518Z,40.33
2023-04-09T04:19:35.369Z,54.22
2023-04-09T04:22:03.286Z,50.90
2023-04-09T04:24:31.081Z,54.25
2023-04-09T04:26:58.988Z,64.25
2023-04-09T04:29:28.576Z,70.43
2023-04-09T04:31:56.476Z,61.38
2023-04-09T04:34:24.517Z,46.95
2023-04-09T04:36:52.673Z,43.92
2023-04-09T04:39:20.392Z,55.72
2023-04-09T04:41:48.148Z,46.17
2023-04-09T04:44:16.227Z,53.20
2023-04-09T04:46:43.981Z,65.80
2023-04-09T04:49:11.590Z,79.72
2023-04-09T04:51:39.256Z,76.95
2023-04-09T04:54:07.032Z,100.22
2023-04-09T04:56:34.666Z,81.10
2023-04-09T04:59:05.902Z,70.38
2023-04-09T05:01:33.738Z,70.38
2023-04-09T05:04:04.696Z,75.00
2023-04-09T05:06:34.788Z,79.80
2023-04-09T05:09:02.509Z,94.05
2023-04-09T05:11:32.760Z,95.90
2023-04-09T05:14:00.543Z,109.20
2023-04-09T05:16:28.208Z,94.57
2023-04-09T05:18:55.855Z,97.78
2023-04-09T05:21:23.938Z,111.05
2023-04-09T05:23:51.653Z,109.88
2023-04-09T05:26:19.321Z,80.38
2023-04-09T05:28:47.517Z,90.13
2023-04-09T05:31:18.335Z,96.03
2023-04-09T05:33:46.294Z,87.32
2023-04-09T05:36:17.422Z,103.28
2023-04-09T05:38:46.032Z,91.32
2023-04-09T05:41:13.781Z,88.85
2023-04-09T05:43:42.923Z,73.70
2023-04-09T05:46:10.771Z,55.13
2023-04-09T05:48:38.475Z,53.90
2023-04-09T05:51:06.370Z,65.47
2023-04-09T05:53:34.059Z,61.53
2023-04-09T05:56:01.710Z,68.55
2023-04-09T05:58:32.703Z,68.50
2023-04-09T06:01:00.370Z,69.20
2023-04-09T06:03:28.916Z,61.03
2023-04-09T06:05:57.283Z,67.35
2023-04-09T06:08:25.027Z,68.05
2023-04-09T06:10:52.709Z,65.10
2023-04-09T06:13:21.447Z,69.45
2023-04-09T06:15:49.249Z,67.93
2023-04-09T06:18:17.277Z,71.32
2023-04-09T06:20:44.949Z,67.53
2023-04-09T06:23:12.709Z,73.93
2023-04-09T06:25:40.412Z,82.32
2023-04-09T06:28:08.861Z,80.78
2023-04-09T06:30:37.231Z,73.93
2023-04-09T06:33:04.990Z,69.13
2023-04-09T06:35:32.907Z,65.68
2023-04-09T06:38:01.115Z,65.13
2023-04-09T06:40:29.005Z,71.18
2023-04-09T06:42:56.843Z,61.80
2023-04-09T06:45:24.464Z,65.10
2023-04-09T06:47:52.650Z,56.33
2023-04-09T06:50:21.006Z,60.53
2023-04-09T06:52:52.452Z,68.25
2023-04-09T06:55:20.053Z,70.38
2023-04-09T06:57:47.716Z,67.88
2023-04-09T07:00:15.700Z,74.10
2023-04-09T07:02:43.752Z,60.03
2023-04-09T07:05:12.029Z,54.05
2023-04-09T07:07:39.746Z,58.78
2023-04-09T07:10:07.757Z,46.30
2023-04-09T07:12:35.848Z,49.75
2023-04-09T07:15:05.041Z,52.75
2023-04-09T07:17:33.023Z,52.47
2023-04-09T07:20:00.769Z,61.63
2023-04-09T07:22:30.095Z,50.13
2023-04-09T07:24:57.851Z,35.80
2023-04-09T07:27:26.464Z,45.60
2023-04-09T07:30:00.563Z,45.80
2023-04-09T07:32:29.214Z,25.90
2023-04-09T07:34:57.701Z,51.38
2023-04-09T07:37:26.257Z,45.40
2023-04-09T07:39:54.005Z,41.95
2023-04-09T07:42:27.418Z,40.42
2023-04-09T07:44:55.282Z,11.88
2023-04-09T07:47:23.269Z,7.57
2023-04-09T07:49:51.433Z,38.33
2023-04-09T07:52:20.466Z,11.68
2023-04-09T07:54:48.292Z,14.48
2023-04-09T07:57:16.097Z,20.50
2023-04-09T07:59:43.835Z,12.32
2023-04-09T08:02:14.338Z,52.00
2023-04-09T08:04:43.090Z,27.80
2023-04-09T08:07:11.594Z,11.60
2023-04-09T08:09:39.201Z,50.67
2023-04-09T08:12:06.841Z,36.08
2023-04-09T08:14:34.994Z,5.03
2023-04-09T08:17:02.868Z,6.07
2023-04-09T08:19:30.647Z,5.68
2023-04-09T08:21:58.889Z,17.38
2023-04-09T08:24:26.785Z,6.65
2023-04-09T08:26:54.692Z,6.07
2023-04-09T08:29:22.658Z,5.10
2023-04-09T08:31:50.834Z,6.53
2023-04-09T08:34:21.239Z,6.90
2023-04-09T08:36:50.191Z,5.32
2023-04-09T08:39:21.291Z,5.35
2023-04-09T08:41:49.303Z,22.83
2023-04-09T08:44:17.736Z,46.42
2023-04-09T08:46:45.480Z,31.23
2023-04-09T08:49:13.094Z,54.25
2023-04-09T08:51:41.504Z,60.55
2023-04-09T08:54:09.333Z,15.02
2023-04-09T08:56:36.897Z,58.38
2023-04-09T08:59:04.446Z,39.33
2023-04-09T09:01:32.718Z,54.67
2023-04-09T09:04:00.537Z,60.58
2023-04-09T09:06:30.206Z,11.48
2023-04-09T09:11:47.547Z,44.88
2023-04-09T09:14:16.388Z,34.55
2023-04-09T09:16:45.201Z,11.15
2023-04-09T09:19:28.129Z,34.35
2023-04-09T09:21:58.712Z,18.70
2023-04-09T09:24:26.465Z,7.20
2023-04-09T09:27:00.193Z,38.35
2023-04-09T09:29:28.738Z,5.88
2023-04-09T09:31:56.879Z,3.92
2023-04-09T09:34:25.251Z,6.43
2023-04-09T09:36:55.680Z,8.48
2023-04-09T09:39:23.391Z,8.00
2023-04-09T09:42:08.530Z,9.02
2023-04-09T09:44:36.323Z,24.98
2023-04-09T09:47:04.906Z,57.22
2023-04-09T09:49:34.976Z,59.00
2023-04-09T09:52:06.110Z,21.55
2023-04-09T09:54:40.066Z,6.22
2023-04-09T09:57:08.817Z,7.97
2023-04-09T09:59:39.113Z,66.05
2023-04-09T10:02:11.316Z,56.65
2023-04-09T10:04:39.658Z,51.38
2023-04-09T10:07:08.301Z,42.92
2023-04-09T10:09:38.695Z,19.20
2023-04-09T10:12:07.162Z,22.02
2023-04-09T10:14:36.221Z,12.63
2023-04-09T10:17:04.242Z,11.60
2023-04-09T10:19:41.201Z,3.72
2023-04-09T10:22:11.940Z,9.00
2023-04-09T10:24:39.662Z,6.57
2023-04-09T10:27:13.688Z,4.60
2023-04-09T10:29:49.612Z,10.63
2023-04-09T10:32:21.860Z,3.95
2023-04-09T10:34:50.860Z,5.95
2023-04-09T10:37:22.599Z,2.63
2023-04-09T10:39:54.506Z,4.47
2023-04-09T10:42:27.516Z,3.45
2023-04-09T10:45:16.929Z,4.30
2023-04-09T10:47:46.344Z,5.22
2023-04-09T10:50:18.236Z,4.20
2023-04-09T10:52:45.862Z,5.18
2023-04-09T10:55:40.656Z,4.38
2023-04-09T10:58:12.294Z,6.35
2023-04-09T11:00:42.836Z,2.60
2023-04-09T11:03:10.960Z,4.00
2023-04-09T11:05:41.168Z,4.13
2023-04-09T11:08:09.867Z,3.67
2023-04-09T11:10:42.636Z,3.45
2023-04-09T11:13:13.814Z,1.73
2023-04-09T11:15:41.911Z,1.50
2023-04-09T11:18:14.053Z,1.85
2023-04-09T11:20:41.760Z,1.65
2023-04-09T11:23:09.456Z,1.90
2023-04-09T11:25:37.034Z,2.30
2023-04-09T11:28:05.267Z,2.22
2023-04-09T11:30:34.521Z,1.90
2023-04-09T11:33:02.502Z,2.15
2023-04-09T11:35:30.274Z,1.73
2023-04-09T11:37:58.401Z,2.33
2023-04-09T11:40:29.360Z,2.00
2023-04-09T11:42:57.615Z,2.83
2023-04-09T11:45:28.979Z,2.15
2023-04-09T11:47:56.587Z,2.33
2023-04-09T11:50:24.636Z,2.28
2023-04-09T11:52:52.640Z,1.58
2023-04-09T11:55:32.342Z,2.05
2023-04-09T11:58:05.570Z,1.50
2023-04-09T12:00:33.446Z,2.15
2023-04-09T12:03:03.992Z,1.75
2023-04-09T12:05:33.730Z,1.63
2023-04-09T12:08:02.115Z,1.58
2023-04-09T12:10:30.496Z,1.55
2023-04-09T12:13:03.504Z,1.90
2023-04-09T12:15:35.291Z,1.50
2023-04-09T12:18:03.763Z,1.85
2023-04-09T12:20:42.385Z,1.95
2023-04-09T12:23:10.311Z,1.50
2023-04-09T12:25:42.886Z,1.80
2023-04-09T12:28:13.798Z,2.45
2023-04-09T12:30:41.523Z,1.33
2023-04-09T12:33:10.981Z,1.60
2023-04-09T12:35:41.531Z,1.73
2023-04-09T12:38:09.662Z,1.35
2023-04-09T12:40:37.287Z,2.80
2023-04-09T12:43:04.821Z,2.45
2023-04-09T12:45:32.687Z,3.10
2023-04-09T12:48:00.226Z,2.80
2023-04-09T12:50:28.772Z,2.97
2023-04-09T12:52:56.612Z,2.00
2023-04-09T12:55:24.179Z,1.40
2023-04-09T12:57:51.969Z,1.27
2023-04-09T13:00:19.610Z,1.85
2023-04-09T13:02:47.335Z,1.20
2023-04-09T13:05:15.176Z,1.80
2023-04-09T13:07:43.576Z,1.65
2023-04-09T13:10:11.582Z,2.35
2023-04-09T13:12:39.560Z,1.90
2023-04-09T13:15:07.473Z,1.10
2023-04-09T13:17:35.256Z,1.67
2023-04-09T13:20:03.749Z,2.55
2023-04-09T13:22:31.369Z,1.75
2023-04-09T13:25:01.320Z,0.63
2023-04-09T13:27:28.898Z,1.15
2023-04-09T13:29:56.471Z,1.25
2023-04-09T13:32:24.472Z,0.43
2023-04-09T13:34:53.904Z,0.95
2023-04-09T13:37:21.983Z,2.13
2023-04-09T13:39:49.677Z,1.42
2023-04-09T13:42:17.401Z,1.27
2023-04-09T13:44:45.515Z,1.95
2023-04-09T13:47:14.056Z,1.20
2023-04-09T13:49:42.193Z,1.00
2023-04-09T13:52:10.700Z,1.45
2023-04-09T13:54:38.567Z,1.10
2023-04-09T13:57:06.563Z,2.00
2023-04-09T13:59:34.191Z,1.70
2023-04-09T14:02:04.336Z,1.67
2023-04-09T14:04:32.218Z,1.73
2023-04-09T14:07:02.568Z,2.35
2023-04-09T14:09:30.412Z,1.98
2023-04-09T14:11:58.100Z,1.88
2023-04-09T14:14:26.090Z,1.75
2023-04-09T14:16:54.148Z,1.50
2023-04-09T14:19:21.686Z,2.58
2023-04-09T14:21:49.388Z,2.45
2023-04-09T14:24:17.049Z,6.45
2023-04-09T14:26:44.644Z,3.95
2023-04-09T14:29:14.257Z,6.65
2023-04-09T14:31:42.960Z,2.03
2023-04-09T14:34:11.327Z,1.75
2023-04-09T14:36:39.470Z,1.58
2023-04-09T14:39:09.573Z,1.63
2023-04-09T14:41:37.168Z,1.77
2023-04-09T14:44:04.750Z,1.10
2023-04-09T14:46:32.295Z,1.40
2023-04-09T14:48:59.928Z,0.80
2023-04-09T14:51:30.848Z,0.82
2023-04-09T14:53:58.700Z,1.10
2023-04-09T14:56:26.250Z,1.30
2023-04-09T14:58:54.306Z,1.52
2023-04-09T15:01:22.790Z,1.33
2023-04-09T15:03:50.820Z,1.45
2023-04-09T15:06:18.630Z,1.40
2023-04-09T15:08:46.281Z,1.48
2023-04-09T15:11:17.500Z,1.10
2023-04-09T15:13:45.198Z,0.80
2023-04-09T15:16:13.007Z,1.25
2023-04-09T15:18:40.635Z,1.23
2023-04-09T15:21:08.263Z,1.42
2023-04-09T15:23:35.860Z,1.63
2023-04-09T15:26:03.493Z,1.35
2023-04-09T15:28:31.240Z,1.00
2023-04-09T15:30:58.853Z,1.55
2023-04-09T15:33:28.105Z,1.63
2023-04-09T15:35:56.849Z,1.08
2023-04-09T15:38:25.255Z,1.13
2023-04-09T15:40:53.347Z,1.08
2023-04-09T15:43:23.503Z,1.80
2023-04-09T15:45:51.694Z,1.60
2023-04-09T15:48:19.776Z,1.70
2023-04-09T15:50:47.504Z,1.65
2023-04-09T15:53:16.043Z,1.75
2023-04-09T15:55:43.906Z,1.92
2023-04-09T15:58:11.784Z,1.75
2023-04-09T16:00:39.493Z,1.90
2023-04-09T16:03:07.152Z,1.73
2023-04-09T16:05:34.802Z,1.88
2023-04-09T16:08:02.379Z,1.55
2023-04-09T16:10:30.532Z,1.50
2023-04-09T16:12:58.254Z,1.80
2023-04-09T16:15:25.877Z,1.42
2023-04-09T16:17:53.554Z,1.40
2023-04-09T16:20:21.242Z,1.42
2023-04-09T16:22:48.856Z,1.00
2023-04-09T16:25:16.483Z,1.80
2023-04-09T16:27:44.112Z,1.73
2023-04-09T16:30:12.018Z,2.17
2023-04-09T16:32:39.871Z,1.70
2023-04-09T16:35:08.606Z,1.77
2023-04-09T16:37:36.445Z,2.03
2023-04-09T16:40:04.512Z,1.90
2023-04-09T16:42:35.178Z,1.70
2023-04-09T16:45:04.625Z,2.05
2023-04-09T16:47:32.800Z,1.80
2023-04-09T16:50:00.484Z,1.58
2023-04-09T16:52:29.387Z,5.03
2023-04-09T16:54:57.132Z,2.40
2023-04-09T16:57:25.609Z,1.90
2023-04-09T16:59:53.257Z,1.80
2023-04-09T17:02:23.061Z,2.10
2023-04-09T17:04:50.765Z,1.67
2023-04-09T17:07:18.522Z,2.03
2023-04-09T17:09:46.327Z,1.83
2023-04-09T17:12:14.130Z,2.28
2023-04-09T17:14:44.807Z,1.83
2023-04-09T17:17:13.027Z,2.25
2023-04-09T17:19:42.816Z,2.45
2023-04-09T17:22:10.833Z,2.15
2023-04-09T17:24:38.583Z,2.35
2023-04-09T17:27:06.168Z,2.40
2023-04-09T17:29:33.718Z,2.25
2023-04-09T17:32:01.523Z,2.03
2023-04-09T17:34:30.328Z,2.20
2023-04-09T17:37:00.007Z,3.08
2023-04-09T17:39:29.556Z,2.42
2023-04-09T17:41:58.332Z,2.20
2023-04-09T17:44:26.089Z,3.60
2023-04-09T17:46:54.435Z,4.47
2023-04-09T17:49:22.492Z,3.22
2023-04-09T17:51:50.235Z,2.47
2023-04-09T17:54:17.815Z,3.30
2023-04-09T17:56:45.852Z,2.90
2023-04-09T17:59:14.073Z,2.35
2023-04-09T18:01:42.091Z,2.42
2023-04-09T18:04:11.101Z,1.83
2023-04-09T18:06:38.896Z,3.20
2023-04-09T18:09:06.460Z,2.67
2023-04-09T18:11:34.070Z,2.75
2023-04-09T18:14:03.033Z,2.92
2023-04-09T18:16:30.871Z,3.33
2023-04-09T18:18:58.573Z,2.80
2023-04-09T18:21:27.196Z,2.30
2023-04-09T18:23:55.225Z,1.92
2023-04-09T18:26:22.960Z,2.08
2023-04-09T18:28:53.495Z,2.90
2023-04-09T18:31:21.516Z,2.05
2023-04-09T18:33:49.262Z,1.88
2023-04-09T18:36:19.389Z,2.60
2023-04-09T18:38:47.028Z,2.65
2023-04-09T18:41:22.494Z,2.78
2023-04-09T18:43:50.104Z,2.10
2023-04-09T18:46:18.209Z,2.42
2023-04-09T18:48:48.991Z,2.50
2023-04-09T18:51:18.850Z,2.58
2023-04-09T18:53:52.938Z,2.55
2023-04-09T18:56:23.118Z,2.20
2023-04-09T18:58:53.992Z,3.03
2023-04-09T19:01:24.519Z,3.22
2023-04-09T19:03:52.388Z,2.85
2023-04-09T19:06:20.547Z,3.35
2023-04-09T19:08:50.178Z,3.42
2023-04-09T19:11:17.980Z,3.35
2023-04-09T19:13:45.667Z,3.60
2023-04-09T19:16:13.578Z,2.83
2023-04-09T19:18:41.471Z,3.17
2023-04-09T19:21:09.192Z,2.58
2023-04-09T19:23:40.381Z,3.38
2023-04-09T19:26:08.249Z,2.88
2023-04-09T19:28:36.214Z,2.33
2023-04-09T19:31:07.080Z,2.65
2023-04-09T19:33:34.803Z,2.28
2023-04-09T19:36:03.423Z,2.50
2023-04-09T19:38:31.296Z,2.38
2023-04-09T19:40:58.954Z,3.10
2023-04-09T19:43:26.668Z,5.72
2023-04-09T19:45:55.283Z,4.70
2023-04-09T19:48:22.913Z,3.40
2023-04-09T19:50:50.739Z,2.75
2023-04-09T19:53:18.745Z,4.05
2023-04-09T19:55:46.402Z,3.35
2023-04-09T19:58:14.186Z,3.30
2023-04-09T20:00:42.128Z,2.00
2023-04-09T20:03:10.607Z,2.53
2023-04-09T20:05:38.680Z,2.08
2023-04-09T20:08:11.760Z,1.80
2023-04-09T20:10:44.641Z,1.83
2023-04-09T20:13:12.416Z,1.63
2023-04-09T20:15:40.125Z,2.20
2023-04-09T20:18:08.139Z,2.13
2023-04-09T20:20:35.858Z,2.40
2023-04-09T20:23:03.599Z,2.50
2023-04-09T20:25:34.975Z,2.50
2023-04-09T20:28:03.508Z,2.63
2023-04-09T20:30:34.393Z,2.22
2023-04-09T20:33:05.329Z,2.83
2023-04-09T20:35:36.527Z,2.53
2023-04-09T20:38:04.382Z,3.30
2023-04-09T20:40:32.355Z,3.13
2023-04-09T20:43:02.733Z,3.60
2023-04-09T20:45:30.500Z,3.35
2023-04-09T20:47:58.404Z,3.17
2023-04-09T20:50:26.188Z,3.83
2023-04-09T20:52:54.105Z,4.13
2023-04-09T20:55:24.455Z,3.35
2023-04-09T20:57:52.122Z,3.65
2023-04-09T21:00:23.323Z,3.20
2023-04-09T21:02:51.907Z,3.67
2023-04-09T21:05:23.952Z,3.15
2023-04-09T21:07:53.141Z,2.67
2023-04-09T21:10:21.039Z,2.47
2023-04-09T21:12:48.906Z,3.53
2023-04-09T21:15:16.813Z,4.38
2023-04-09T21:17:44.606Z,3.95
2023-04-09T21:20:12.503Z,2.72
2023-04-09T21:22:40.259Z,2.63
2023-04-09T21:25:08.194Z,2.80
2023-04-09T21:27:35.970Z,2.38
2023-04-09T21:30:03.813Z,2.88
2023-04-09T21:32:31.589Z,2.75
2023-04-09T21:35:00.583Z,2.58
2023-04-09T21:37:29.405Z,3.03
2023-04-09T21:39:57.033Z,2.17
2023-04-09T21:42:25.375Z,1.98
2023-04-09T21:44:53.088Z,30.05
2023-04-09T21:47:20.949Z,37.28
2023-04-09T21:49:50.280Z,36.80
2023-04-09T21:52:18.298Z,29.98
2023-04-09T21:54:46.592Z,29.88
2023-04-09T21:57:17.365Z,39.17
2023-04-09T21:59:47.918Z,53.25
2023-04-09T22:02:15.714Z,46.28
2023-04-09T22:04:43.539Z,48.90
2023-04-09T22:07:11.707Z,35.88
2023-04-09T22:09:39.541Z,36.30
2023-04-09T22:12:07.685Z,54.35
2023-04-09T22:14:35.859Z,49.47
2023-04-09T22:17:03.747Z,39.13
2023-04-09T22:19:32.299Z,33.80
2023-04-09T22:22:00.050Z,21.08
2023-04-09T22:24:29.784Z,5.65
2023-04-09T22:26:58.997Z,3.85
2023-04-09T22:29:27.203Z,5.68
2023-04-09T22:31:55.786Z,4.32
2023-04-09T22:34:24.484Z,3.88
2023-04-09T22:36:52.211Z,6.38
2023-04-09T22:39:19.916Z,24.10
2023-04-09T22:41:47.742Z,4.85
2023-04-09T22:44:17.845Z,19.65
2023-04-09T22:46:46.457Z,7.03
2023-04-09T22:49:14.239Z,9.82
2023-04-09T22:51:42.854Z,14.90
2023-04-09T22:54:11.718Z,3.88
2023-04-09T22:56:39.800Z,3.83
2023-04-09T22:59:07.620Z,6.10
2023-04-09T23:01:38.034Z,14.25
2023-04-09T23:04:05.971Z,4.05
2023-04-09T23:06:33.813Z,4.85
2023-04-09T23:09:03.916Z,45.97
2023-04-09T23:11:36.622Z,63.20
2023-04-09T23:14:04.378Z,5.13
2023-04-09T23:16:32.393Z,7.90
2023-04-09T23:19:00.996Z,3.45
2023-04-09T23:21:28.715Z,3.67
2023-04-09T23:23:56.483Z,4.28
2023-04-09T23:26:24.305Z,3.15
2023-04-09T23:28:52.209Z,3.25
2023-04-09T23:31:20.183Z,2.65
2023-04-09T23:33:48.038Z,1.90
2023-04-09T23:36:16.612Z,2.83
2023-04-09T23:38:47.025Z,4.15
2023-04-09T23:41:14.858Z,3.10
2023-04-09T23:43:42.762Z,3.80
2023-04-09T23:46:10.742Z,3.50
2023-04-09T23:48:38.762Z,3.28
2023-04-09T23:51:06.790Z,3.05
2023-04-09T23:53:34.547Z,2.80
2023-04-09T23:56:02.466Z,3.13
2023-04-09T23:58:30.272Z,2.45
